Terminal Aerodrome Forecast
Issued by NWS Wichita, KS

Home | Current Version | Previous Version | Text Only | Print | Product List | Glossary On
Versions: 1 2 3 4 5 6 7 8 9 10 11 12 13 14 15 16 17 18 19 20 21 22 23 24
326
FTUS43 KICT 250520
TAFICT
TAF
KICT 250520Z 2506/2606 34018G25KT P6SM VCSH OVC015
     FM250700 35018G25KT 5SM BR OVC007
     FM251000 33017G25KT P6SM OVC015
     FM251800 34015G22KT P6SM OVC025
     FM260000 34010KT P6SM SCT025
     FM260300 36005KT P6SM SCT250=

USA.gov is the U.S. government's official web portal to all federal, state and local government web resources and services.